Rio Novo do Sul, Brazil
Current Conditions -  °F | °C
As of 7:00 PM on Friday 19 Dec 2014 (Local Time) from SBVT Reporting Station
Scattered Clouds Scattered Clouds  
Wind Chill: 79°   Ceiling: Unl
Heat Index: 81°   Visibility: 6mi
Dew Point: 68°   Wind: 18mph
Humidity: 69%   Direction: 50°NE
Pressure: 29.77"   Gusts: NA
Location:  20.86°S, 40.94°W
Report Text: SBVT 192100Z 05016KT 9999 FEW030 SCT100 26/20 Q1008
Loading
Personal Weather Stations






























Interactive Weather Map New forecast layout! Learn more

10-Day Weather Forecast

Advertisements
Track Severe Weather on mobile